Time;durP1;ratioP1;P1;durP2;ratioP2;P2;SDS_P1;SDS_P2;PMS_P1;PMS_P2;Temp;Humidity;BMP_temperature;BMP_pressure;BME280_temperature;BME280_humidity;BME280_pressure;Samples;Min_cycle;Max_cycle;Signal;HPM_P1;HPM_P2
2021/04/14 00:01:08;;;;;;;25.35;17.73;;;;;;;1.04;79.36;96344.44;5006282;28;20121;-60
2021/04/14 00:03:35;;;;;;;28.42;18.40;;;;;;;0.97;79.10;96327.94;5009665;23;20050;-73
2021/04/14 00:06:01;;;;;;;27.75;18.30;;;;;;;0.99;79.50;96337.22;4990828;28;20038;-73
2021/04/14 00:08:30;;;;;;;28.63;18.63;;;;;;;0.89;79.20;96329.03;4990552;28;20126;-74
2021/04/14 00:10:56;;;;;;;24.50;16.63;;;;;;;0.88;79.21;96329.25;4991395;28;20035;-74
2021/04/14 00:13:26;;;;;;;31.98;20.10;;;;;;;0.91;79.16;96337.47;4971108;28;20046;-74
2021/04/14 00:15:54;;;;;;;31.73;19.77;;;;;;;0.86;79.30;96332.06;4986119;28;20421;-74
2021/04/14 00:18:26;;;;;;;25.15;18.05;;;;;;;0.76;78.67;96327.28;4970949;28;20035;-74
2021/04/14 00:20:52;;;;;;;31.70;17.02;;;;;;;0.79;79.01;96336.56;4970327;28;20038;-74
2021/04/14 00:23:20;;;;;;;35.05;20.10;;;;;;;0.77;79.33;96335.97;4970871;28;20373;-73
2021/04/14 00:25:47;;;;;;;20.83;15.38;;;;;;;0.67;79.05;96335.66;4972916;28;20472;-74
2021/04/14 00:28:16;;;;;;;20.15;14.60;;;;;;;0.56;78.89;96323.22;4970843;28;20049;-74
2021/04/14 00:30:42;;;;;;;21.85;15.73;;;;;;;0.69;79.40;96331.00;4970956;28;20425;-74
2021/04/14 00:33:08;;;;;;;17.17;14.43;;;;;;;0.63;78.74;96321.38;4970826;28;20043;-73
2021/04/14 00:35:33;;;;;;;21.73;14.98;;;;;;;0.63;78.68;96327.41;4971012;28;20038;-74
2021/04/14 00:37:58;;;;;;;17.13;14.00;;;;;;;0.53;78.43;96329.69;4972502;28;20095;-74
2021/04/14 00:40:30;;;;;;;13.88;12.43;;;;;;;0.74;78.97;96333.78;4970800;28;20437;-74
2021/04/14 00:42:56;;;;;;;;;;;;;;;0.82;79.25;96335.31;4970209;28;20042;-74
2021/04/14 00:45:23;;;;;;;13.40;11.98;;;;;;;0.84;78.77;96326.25;4970529;28;19922;-74
2021/04/14 00:47:48;;;;;;;15.98;12.00;;;;;;;0.86;78.81;96318.16;4970664;28;20039;-75
2021/04/14 00:50:17;;;;;;;15.65;12.48;;;;;;;0.97;79.01;96334.00;4970247;28;20560;-74
2021/04/14 00:52:43;;;;;;;17.00;12.80;;;;;;;1.03;78.72;96322.66;4972268;28;20047;-73
2021/04/14 00:55:14;;;;;;;14.95;12.20;;;;;;;1.02;78.32;96331.56;4970524;28;20093;-73
2021/04/14 00:57:40;;;;;;;20.73;12.97;;;;;;;1.03;78.48;96327.91;4985446;28;20042;-74
2021/04/14 01:00:08;;;;;;;14.43;12.85;;;;;;;1.00;78.32;96323.09;4970475;28;20780;-73
2021/04/14 01:02:33;;;;;;;17.73;13.23;;;;;;;0.83;78.34;96303.69;4970365;28;20035;-73
2021/04/14 01:04:59;;;;;;;15.02;12.18;;;;;;;0.89;78.24;96310.69;4950800;28;596560;-64
2021/04/14 01:07:24;;;;;;;14.80;12.25;;;;;;;0.87;78.55;96311.91;4972895;28;20115;-74
2021/04/14 01:09:50;;;;;;;18.27;14.27;;;;;;;0.87;78.73;96307.50;4971209;28;20133;-74
2021/04/14 01:12:15;;;;;;;17.38;13.32;;;;;;;0.91;78.11;96313.09;4970951;28;20085;-73
2021/04/14 01:14:41;;;;;;;14.10;12.38;;;;;;;0.82;78.17;96302.09;4971078;28;20038;-73
2021/04/14 01:17:06;;;;;;;15.10;12.70;;;;;;;0.94;78.61;96313.47;4985822;28;20031;-74
2021/04/14 01:19:31;;;;;;;16.88;12.50;;;;;;;0.88;78.45;96297.81;4972885;28;20027;-73
2021/04/14 01:21:57;;;;;;;14.05;12.18;;;;;;;0.98;78.61;96311.22;4970817;28;20370;-74
2021/04/14 01:24:22;;;;;;;12.15;10.70;;;;;;;1.01;78.63;96302.91;4986100;28;20177;-73
2021/04/14 01:26:48;;;;;;;13.77;11.50;;;;;;;1.08;78.58;96300.28;4970946;28;20038;-73
2021/04/14 01:29:14;;;;;;;15.57;11.23;;;;;;;1.12;78.16;96298.78;4970745;28;20027;-73
2021/04/14 01:31:40;;;;;;;12.20;11.00;;;;;;;1.19;78.11;96304.78;4973925;28;20023;-73
2021/04/14 01:34:11;;;;;;;13.15;11.18;;;;;;;1.22;77.59;96304.34;4974987;28;20039;-74
2021/04/14 01:36:37;;;;;;;12.20;10.85;;;;;;;1.21;77.62;96297.50;4974789;28;20054;-74
2021/04/14 01:39:05;;;;;;;12.18;10.93;;;;;;;1.18;77.53;96298.75;4974436;28;20378;-74
2021/04/14 01:41:30;;;;;;;12.75;10.85;;;;;;;1.09;77.69;96294.00;4974619;28;20031;-74
2021/04/14 01:43:56;;;;;;;12.50;11.20;;;;;;;1.14;77.31;96309.88;4976554;28;20623;-74
2021/04/14 01:46:21;;;;;;;11.82;10.63;;;;;;;1.09;77.42;96307.91;4974801;28;20082;-74
2021/04/14 01:48:46;;;;;;;16.60;11.88;;;;;;;0.83;77.58;96266.22;4974386;28;20039;-75
2021/04/14 01:51:14;;;;;;;13.18;10.90;;;;;;;1.00;77.66;96291.66;4974014;28;20549;-75
2021/04/14 01:53:40;;;;;;;13.00;11.38;;;;;;;1.08;77.68;96297.66;4974449;28;20122;-75
2021/04/14 01:56:06;;;;;;;12.98;10.88;;;;;;;1.08;77.93;96295.03;4974620;28;20062;-73
2021/04/14 01:58:32;;;;;;;14.05;11.18;;;;;;;1.18;77.77;96303.19;4976137;28;20019;-74
2021/04/14 02:01:01;;;;;;;15.02;11.13;;;;;;;1.22;78.19;96278.94;4989117;28;20097;-74
2021/04/14 02:03:31;;;;;;;13.55;11.02;;;;;;;1.50;78.12;96298.63;4974024;28;20055;-74
2021/04/14 02:05:57;;;;;;;10.57;9.48;;;;;;;1.66;78.18;96295.44;4974251;28;20053;-74
2021/04/14 02:08:22;;;;;;;11.68;10.52;;;;;;;1.77;77.16;96291.28;4974050;28;20604;-73
2021/04/14 02:10:50;;;;;;;11.80;10.60;;;;;;;1.74;76.92;96287.28;4975963;28;20035;-75
2021/04/14 02:13:19;;;;;;;19.08;11.88;;;;;;;1.71;76.54;96281.66;4974035;28;20118;-74
2021/04/14 02:15:45;;;;;;;11.68;10.48;;;;;;;1.64;76.36;96283.53;4974262;28;20105;-74
2021/04/14 02:18:10;;;;;;;10.35;9.35;;;;;;;1.64;76.37;96294.03;4973986;28;20444;-74
2021/04/14 02:20:36;;;;;;;11.95;10.70;;;;;;;1.61;76.37;96299.72;4988441;28;20039;-73
2021/04/14 02:23:38;;;;;;;12.23;10.88;;;;;;;1.41;76.09;96294.69;4973952;28;20027;-73
2021/04/14 02:26:08;;;;;;;14.70;10.65;;;;;;;1.34;75.96;96286.91;4962709;28;20034;-73
2021/04/14 02:28:34;;;;;;;16.42;11.02;;;;;;;1.36;76.34;96287.47;4975634;28;20030;-73
2021/04/14 02:30:59;;;;;;;13.95;10.85;;;;;;;1.36;76.44;96287.47;4988506;28;20031;-74
2021/04/14 02:33:25;;;;;;;12.57;10.57;;;;;;;1.42;76.16;96291.06;4973481;28;20039;-74
2021/04/14 02:35:52;;;;;;;12.98;10.95;;;;;;;1.46;76.57;96292.22;4973173;28;20378;-74
2021/04/14 02:38:18;;;;;;;13.57;10.93;;;;;;;1.52;76.66;96289.53;4972454;28;20030;-74
2021/04/14 02:40:44;;;;;;;15.07;10.05;;;;;;;1.45;76.55;96288.81;4975415;28;20030;-73
2021/04/14 02:43:10;;;;;;;12.20;10.50;;;;;;;1.72;76.97;96297.16;4988305;28;20121;-74
2021/04/14 02:45:37;;;;;;;12.38;10.02;;;;;;;1.91;76.58;96286.69;4973612;28;20512;-74
2021/04/14 02:48:03;;;;;;;13.85;9.63;;;;;;;1.87;75.64;96288.94;4973435;28;20030;-75
2021/04/14 02:50:29;;;;;;;10.88;9.77;;;;;;;1.85;74.85;96285.72;4972922;28;20124;-76
2021/04/14 02:52:55;;;;;;;10.85;9.82;;;;;;;1.93;74.22;96276.75;4973908;28;20027;-74
2021/04/14 02:55:23;;;;;;;14.15;9.98;;;;;;;1.96;74.29;96282.38;4972199;28;20035;-75
2021/04/14 02:57:49;;;;;;;11.55;9.73;;;;;;;2.05;74.95;96278.41;4973132;28;20162;-74
2021/04/14 03:00:17;;;;;;;12.98;10.35;;;;;;;1.97;74.70;96278.72;4973190;28;20039;-74
2021/04/14 03:02:42;;;;;;;11.88;10.68;;;;;;;1.89;74.07;96271.13;4973076;28;20041;-73
2021/04/14 03:05:11;;;;;;;14.43;11.25;;;;;;;2.01;74.78;96279.06;4973072;28;20031;-73
2021/04/14 03:07:37;;;;;;;12.75;10.05;;;;;;;2.08;75.26;96275.31;4974805;28;20066;-73
2021/04/14 03:10:05;;;;;;;10.60;9.57;;;;;;;2.17;74.48;96270.59;4973031;28;20498;-73
2021/04/14 03:12:31;;;;;;;12.10;10.90;;;;;;;2.26;74.43;96271.88;4972926;28;20536;-74
2021/04/14 03:14:56;;;;;;;12.95;10.20;;;;;;;2.23;74.55;96258.38;4988222;28;20035;-73
2021/04/14 03:17:22;;;;;;;12.15;10.73;;;;;;;2.13;73.75;96250.25;4988099;28;20129;-73
2021/04/14 03:19:47;;;;;;;13.13;10.60;;;;;;;2.11;72.88;96268.06;4974369;28;20031;-75
2021/04/14 03:22:13;;;;;;;13.48;11.05;;;;;;;1.88;73.58;96258.25;4972489;28;20089;-72
2021/04/14 03:24:38;;;;;;;17.75;12.02;;;;;;;1.76;74.05;96258.19;4972794;28;20051;-75
2021/04/14 03:27:04;;;;;;;15.55;11.80;;;;;;;1.70;74.11;96264.31;4972564;28;20038;-73
2021/04/14 03:29:29;;;;;;;19.10;13.25;;;;;;;1.55;74.65;96265.50;4972708;28;20031;-73
2021/04/14 03:31:55;;;;;;;15.13;12.43;;;;;;;1.36;74.60;96258.66;4974459;28;20477;-74
2021/04/14 03:34:20;;;;;;;19.88;13.02;;;;;;;1.30;74.67;96270.81;4972541;28;20437;-74
2021/04/14 03:36:45;;;;;;;17.75;13.23;;;;;;;1.18;74.94;96261.25;4972524;28;20102;-74
2021/04/14 03:39:11;;;;;;;22.63;14.35;;;;;;;1.15;75.31;96272.16;4987447;28;20125;-74
2021/04/14 03:41:36;;;;;;;21.75;13.80;;;;;;;0.91;75.48;96237.13;4972513;28;20115;-74
2021/04/14 03:44:02;;;;;;;23.65;15.55;;;;;;;0.93;75.89;96258.69;4972692;28;20026;-74
2021/04/14 03:46:27;;;;;;;23.88;15.85;;;;;;;0.92;75.90;96270.16;4974318;28;20512;-74
2021/04/14 03:48:53;;;;;;;29.85;16.27;;;;;;;0.81;76.10;96260.38;4971908;28;20042;-74
2021/04/14 03:51:21;;;;;;;26.02;16.65;;;;;;;0.73;76.54;96258.84;4971709;28;20099;-73
2021/04/14 03:53:46;;;;;;;20.58;14.70;;;;;;;0.70;76.76;96257.44;4971942;28;20039;-73
2021/04/14 03:56:18;;;;;;;19.90;15.15;;;;;;;0.72;76.69;96255.44;4972087;28;20062;-74
2021/04/14 03:58:48;;;;;;;15.63;13.93;;;;;;;0.71;77.19;96260.84;4973945;28;20038;-73
2021/04/14 04:01:20;;;;;;;20.10;14.10;;;;;;;0.72;77.54;96254.63;4971919;28;20031;-74
2021/04/14 04:03:45;;;;;;;16.08;11.88;;;;;;;0.69;77.78;96252.44;4972076;28;20039;-74
2021/04/14 04:06:11;;;;;;;26.08;15.52;;;;;;;0.69;77.58;96248.00;4972262;28;20046;-74
2021/04/14 04:08:36;;;;;;;16.02;13.68;;;;;;;0.66;77.55;96245.00;4971714;28;20386;-73
2021/04/14 04:11:02;;;;;;;19.75;14.32;;;;;;;0.76;77.56;96253.16;4986805;28;20054;-73
2021/04/14 04:13:30;;;;;;;20.77;14.98;;;;;;;0.77;78.06;96244.31;4973661;28;20389;-75
2021/04/14 04:15:55;;;;;;;19.90;14.15;;;;;;;0.76;77.15;96258.41;4986781;28;20035;-73
2021/04/14 04:18:21;;;;;;;17.83;13.52;;;;;;;0.81;77.65;96253.31;4971414;28;20444;-74
2021/04/14 04:20:46;;;;;;;21.60;14.38;;;;;;;0.90;77.17;96259.91;4971035;28;20062;-74
2021/04/14 04:23:12;;;;;;;20.17;14.20;;;;;;;0.88;77.18;96266.38;4971641;28;20437;-74
2021/04/14 04:25:39;;;;;;;15.82;13.75;;;;;;;0.94;77.07;96265.50;4973678;28;20488;-73
2021/04/14 04:28:05;;;;;;;20.42;14.27;;;;;;;0.99;77.57;96253.38;4971435;28;20035;-73
2021/04/14 04:30:31;;;;;;;27.38;14.20;;;;;;;1.07;77.35;96265.38;4971371;28;20046;-73
2021/04/14 04:32:57;;;;;;;19.52;13.10;;;;;;;1.18;77.34;96254.19;4971101;28;20077;-74
2021/04/14 04:35:24;;;;;;;16.30;13.48;;;;;;;1.02;76.30;96267.84;4971533;28;20035;-74
2021/04/14 04:37:49;;;;;;;17.88;13.73;;;;;;;0.96;75.74;96250.38;4973180;28;20023;-73
2021/04/14 04:40:16;;;;;;;16.42;13.60;;;;;;;1.11;76.46;96265.75;4986307;28;20129;-73
2021/04/14 04:42:41;;;;;;;18.23;13.68;;;;;;;0.96;76.02;96260.84;4971286;28;20042;-74
2021/04/14 04:45:09;;;;;;;18.10;13.32;;;;;;;1.02;76.24;96270.47;4971515;28;20055;-74
2021/04/14 04:47:35;;;;;;;16.73;13.35;;;;;;;1.01;75.86;96272.28;4971370;28;20031;-74
2021/04/14 04:50:00;;;;;;;15.07;13.48;;;;;;;0.90;76.31;96249.41;4985625;28;20026;-73
2021/04/14 04:52:26;;;;;;;25.48;16.30;;;;;;;1.04;76.23;96261.38;4987943;28;20064;-74
2021/04/14 04:54:52;;;;;;;28.50;17.95;;;;;;;0.97;76.29;96250.19;4971336;28;20045;-75
2021/04/14 04:57:17;;;;;;;17.08;14.57;;;;;;;0.99;75.95;96258.59;4985555;28;20038;-74
2021/04/14 04:59:43;;;;;;;16.80;13.65;;;;;;;1.03;76.22;96264.22;4970663;28;20030;-73
2021/04/14 05:02:08;;;;;;;15.93;14.23;;;;;;;1.06;76.01;96268.22;4971011;28;20451;-73
2021/04/14 05:04:34;;;;;;;16.13;13.23;;;;;;;0.96;76.30;96263.47;4973096;28;20121;-75
2021/04/14 05:06:59;;;;;;;17.63;13.40;;;;;;;1.15;76.16;96265.09;4969960;28;20038;-74
2021/04/14 05:09:25;;;;;;;18.63;13.05;;;;;;;1.06;75.74;96273.47;4970964;28;20046;-76
2021/04/14 05:11:50;;;;;;;15.98;12.68;;;;;;;1.26;75.85;96276.69;4970824;28;20039;-75
2021/04/14 05:14:16;;;;;;;18.73;11.98;;;;;;;1.18;75.91;96256.03;4970962;28;20061;-74
2021/04/14 05:16:42;;;;;;;20.98;12.85;;;;;;;1.27;75.71;96265.97;4972513;28;20031;-73
2021/04/14 05:19:07;;;;;;;14.30;12.43;;;;;;;1.37;75.49;96270.72;4970700;28;20078;-74
2021/04/14 05:21:36;;;;;;;11.98;10.80;;;;;;;0.83;76.21;96268.84;4970059;28;20046;-74
2021/04/14 05:24:01;;;;;;;13.23;11.63;;;;;;;0.87;76.08;96276.06;4970589;28;20104;-74
2021/04/14 05:26:27;;;;;;;16.33;11.48;;;;;;;0.78;77.13;96282.56;4971152;28;20065;-73
2021/04/14 05:28:52;;;;;;;13.25;11.80;;;;;;;1.06;75.53;96265.59;4972739;28;20034;-74
2021/04/14 05:31:18;;;;;;;14.73;12.35;;;;;;;1.47;75.72;96281.50;4970652;28;20055;-74
2021/04/14 05:33:43;;;;;;;18.40;12.25;;;;;;;1.64;74.93;96270.44;4970833;28;20122;-74
2021/04/14 05:36:09;;;;;;;13.88;10.90;;;;;;;1.66;74.16;96271.81;4971113;28;20035;-74
2021/04/14 05:38:34;;;;;;;14.00;11.05;;;;;;;1.51;73.17;96281.88;4970755;28;20105;-74
2021/04/14 05:41:00;;;;;;;14.85;11.88;;;;;;;1.64;73.03;96273.06;4970620;28;20039;-67
2021/04/14 05:43:35;;;;;;;12.82;10.88;;;;;;;1.43;73.38;96279.53;4972206;28;20027;-75
2021/04/14 05:46:03;;;;;;;15.13;10.98;;;;;;;1.12;74.08;96267.34;4970051;28;20050;-73
2021/04/14 05:48:29;;;;;;;14.18;10.68;;;;;;;1.47;73.63;96278.88;4970725;28;20030;-76
2021/04/14 05:50:58;;;;;;;20.92;12.00;;;;;;;1.58;73.37;96276.56;4970707;28;20057;-75
2021/04/14 05:53:24;;;;;;;20.98;11.95;;;;;;;1.78;72.59;96269.25;4970353;28;20078;-75
2021/04/14 05:55:50;;;;;;;13.93;11.15;;;;;;;1.45;71.97;96236.38;4972416;28;20046;-87
2021/04/14 05:58:15;;;;;;;13.07;10.82;;;;;;;2.11;71.49;96281.19;4971721;28;20074;-75
2021/04/14 06:00:41;;;;;;;14.70;11.43;;;;;;;2.28;71.10;96255.88;4968934;28;20078;-77
2021/04/14 06:03:06;;;;;;;11.82;10.40;;;;;;;2.19;69.37;96265.91;4980675;28;20069;-75
2021/04/14 06:05:31;;;;;;;12.57;10.38;;;;;;;2.41;68.94;96279.34;5011851;23;20049;-62
2021/04/14 06:07:57;;;;;;;14.35;11.50;;;;;;;2.50;69.05;96254.34;4991037;28;20035;-61
2021/04/14 06:10:23;;;;;;;13.00;9.68;;;;;;;2.78;68.39;96274.72;4988673;28;20057;-61
2021/04/14 06:12:51;;;;;;;17.75;9.70;;;;;;;2.59;67.55;96278.47;4988168;28;20101;-63
2021/04/14 06:15:24;;;;;;;11.68;9.80;;;;;;;2.98;67.41;96271.00;4989357;28;20065;-61
2021/04/14 06:17:49;;;;;;;14.00;8.38;;;;;;;3.25;67.59;96273.94;4990644;28;20054;-61
2021/04/14 06:20:18;;;;;;;14.95;9.15;;;;;;;3.37;67.13;96272.91;4990669;28;20026;-63
2021/04/14 06:22:43;;;;;;;11.75;9.27;;;;;;;2.95;65.00;96266.16;4994302;28;20440;-61
2021/04/14 06:25:13;;;;;;;16.90;7.68;;;;;;;2.63;64.52;96277.00;4992826;28;20038;-62
2021/04/14 06:27:46;;;;;;;10.18;7.63;;;;;;;2.47;64.58;96267.94;4992631;28;20038;-62
2021/04/14 06:30:12;;;;;;;11.20;6.93;;;;;;;2.89;63.92;96257.38;5007760;28;20069;-61
2021/04/14 06:32:38;;;;;;;8.48;6.38;;;;;;;2.92;62.72;96277.94;4992682;28;20109;-62
2021/04/14 06:35:04;;;;;;;17.30;7.07;;;;;;;2.59;64.09;96279.25;4992852;28;20062;-61
2021/04/14 06:37:29;;;;;;;8.82;6.40;;;;;;;2.97;62.88;96283.31;4994175;28;20092;-61
2021/04/14 06:43:03;;;;;;;9.10;7.65;;;;;;;3.51;62.55;96273.47;4992447;28;20177;-61
2021/04/14 06:45:39;;;;;;;15.20;7.43;;;;;;;3.03;61.96;96268.47;4992341;28;20181;-61
2021/04/14 06:48:23;;;;;;;13.27;6.22;;;;;;;3.29;61.15;96256.69;4992139;28;20129;-61
2021/04/14 06:51:00;;;;;;;9.23;7.15;;;;;;;3.34;61.02;96235.75;4991757;28;20044;-60
2021/04/14 06:53:37;;;;;;;7.25;4.90;;;;;;;3.38;60.22;96268.47;4992084;28;20038;-60
2021/04/14 06:56:09;;;;;;;8.02;5.15;;;;;;;3.55;60.83;96271.97;4992419;28;20061;-61
2021/04/14 06:58:40;;;;;;;8.88;5.32;;;;;;;3.82;59.70;96268.81;4993944;28;20392;-59
2021/04/14 07:01:11;;;;;;;8.38;5.25;;;;;;;3.96;58.73;96275.44;4992216;28;20046;-61
2021/04/14 07:04:21;;;;;;;9.70;5.18;;;;;;;3.92;58.63;96269.81;4992401;28;20041;-60
2021/04/14 07:06:48;;;;;;;8.90;5.20;;;;;;;4.05;58.53;96266.13;5009218;28;20042;-61
2021/04/14 07:09:31;;;;;;;6.50;5.43;;;;;;;4.13;58.00;96271.00;5009404;28;20125;-61
2021/04/14 07:11:58;;;;;;;6.85;5.30;;;;;;;4.44;58.60;96271.56;4998913;28;20092;-60
2021/04/14 07:14:24;;;;;;;7.65;5.88;;;;;;;4.63;57.91;96277.41;4992002;28;20075;-61
2021/04/14 07:16:55;;;;;;;5.93;5.28;;;;;;;4.85;58.21;96270.41;4993773;28;20029;-60
2021/04/14 07:19:58;;;;;;;10.48;5.65;;;;;;;5.04;57.23;96273.59;5006392;28;20129;-58
2021/04/14 07:23:02;;;;;;;8.73;5.05;;;;;;;4.96;54.92;96260.81;4991589;28;20034;-62
2021/04/14 07:25:32;;;;;;;5.97;4.75;;;;;;;5.22;55.69;96275.19;4991969;28;20050;-62
2021/04/14 07:28:27;;;;;;;6.53;4.78;;;;;;;5.39;55.47;96264.59;4991413;28;20051;-64
2021/04/14 07:31:11;;;;;;;6.88;4.88;;;;;;;5.36;54.74;96265.09;4991877;28;20070;-61
2021/04/14 07:34:14;;;;;;;9.88;5.15;;;;;;;5.54;54.27;96270.09;5006612;28;20041;-63
2021/04/14 07:36:52;;;;;;;7.93;5.15;;;;;;;5.00;54.06;96271.69;4991525;28;20508;-63
2021/04/14 07:39:41;;;;;;;6.38;4.72;;;;;;;5.17;54.52;96272.50;5006406;28;20108;-65
2021/04/14 07:42:25;;;;;;;8.68;5.30;;;;;;;4.95;53.42;96277.66;5006203;28;20070;-64
2021/04/14 07:45:01;;;;;;;10.27;4.97;;;;;;;5.36;53.71;96267.72;4991243;28;20444;-64
2021/04/14 07:47:27;;;;;;;9.60;5.32;;;;;;;5.39;53.83;96220.56;4991241;28;20041;-64
2021/04/14 07:49:53;;;;;;;7.75;5.30;;;;;;;5.97;52.17;96300.22;5007673;28;20026;-63
2021/04/14 07:52:29;;;;;;;7.28;4.75;;;;;;;6.31;52.61;96278.94;4989539;28;20050;-62
2021/04/14 07:54:56;;;;;;;8.20;4.57;;;;;;;6.04;49.99;96245.38;4991378;28;20030;-62
2021/04/14 07:57:38;;;;;;;6.43;4.93;;;;;;;6.13;50.79;96192.88;4991221;28;20564;-62
2021/04/14 08:00:32;;;;;;;8.15;5.00;;;;;;;6.83;49.74;96273.88;4991035;28;20045;-61
2021/04/14 08:03:22;;;;;;;12.07;4.95;;;;;;;6.68;49.26;96221.66;4990956;28;20042;-61
2021/04/14 08:05:47;;;;;;;8.95;4.57;;;;;;;6.94;48.74;96233.22;4991196;28;20092;-66
2021/04/14 08:08:22;;;;;;;5.32;4.57;;;;;;;7.48;47.91;96269.31;4990770;28;20022;-63
2021/04/14 08:10:57;;;;;;;10.30;4.60;;;;;;;7.25;47.54;96194.53;4992840;28;20030;-61
2021/04/14 08:13:27;;;;;;;6.72;4.70;;;;;;;8.00;46.85;96271.16;4987938;28;20066;-61
2021/04/14 08:15:54;;;;;;;7.50;4.10;;;;;;;7.52;43.53;96249.19;4991157;28;20567;-60
2021/04/14 08:18:32;;;;;;;5.00;3.88;;;;;;;7.87;45.52;96263.66;4990594;28;20042;-62
2021/04/14 08:21:04;;;;;;;6.07;4.63;;;;;;;8.12;45.17;96269.06;4990298;28;20532;-61
2021/04/14 08:23:30;;;;;;;6.05;4.50;;;;;;;7.75;44.53;96259.38;4990737;28;20074;-63
2021/04/14 08:25:59;;;;;;;11.07;4.35;;;;;;;7.99;44.24;96221.88;5007844;28;20398;-61
2021/04/14 08:28:42;;;;;;;11.40;4.45;;;;;;;6.56;45.92;96263.34;4990265;28;20504;-61
2021/04/14 08:31:13;;;;;;;7.28;4.45;;;;;;;7.74;43.85;96241.91;4990641;28;20041;-62
2021/04/14 08:33:40;;;;;;;8.40;4.07;;;;;;;7.85;43.24;96241.94;4990566;28;20129;-62
2021/04/14 08:36:29;;;;;;;5.35;3.55;;;;;;;8.00;42.25;96252.59;4990754;28;20030;-62
2021/04/14 08:38:55;;;;;;;4.53;3.15;;;;;;;8.52;41.48;96244.53;4990036;28;20121;-62
2021/04/14 08:41:26;;;;;;;5.75;3.40;;;;;;;8.46;40.53;96210.34;4990001;28;20129;-63
2021/04/14 08:43:53;;;;;;;3.83;3.37;;;;;;;9.02;39.63;96220.94;4992098;28;20504;-63
2021/04/14 08:46:31;;;;;;;3.70;2.90;;;;;;;8.12;39.23;96247.88;5005480;28;20640;-63
2021/04/14 08:49:11;;;;;;;5.13;3.08;;;;;;;8.20;40.54;96250.03;4990166;28;20050;-62
2021/04/14 08:51:41;;;;;;;5.07;2.50;;;;;;;8.61;40.39;96244.81;5004741;28;20038;-63
2021/04/14 08:54:13;;;;;;;7.90;2.97;;;;;;;8.60;40.43;96240.59;4990470;28;20022;-63
2021/04/14 08:56:39;;;;;;;7.50;2.70;;;;;;;6.47;43.86;96227.84;4990387;28;20038;-62
2021/04/14 08:59:04;;;;;;;3.47;2.30;;;;;;;7.38;40.83;96240.16;4990127;28;20109;-62
2021/04/14 09:01:31;;;;;;;7.28;2.30;;;;;;;7.48;40.84;96234.91;4992023;28;20099;-62
2021/04/14 09:04:00;;;;;;;5.50;2.50;;;;;;;6.05;44.75;96204.72;4990423;28;20030;-63
2021/04/14 09:06:27;;;;;;;4.72;2.83;;;;;;;7.32;42.71;96236.69;4990276;28;20520;-61
2021/04/14 09:08:54;;;;;;;4.80;2.28;;;;;;;7.55;41.18;96223.00;4990041;28;20054;-63
2021/04/14 09:11:28;;;;;;;4.07;2.40;;;;;;;8.00;40.00;96220.81;4989839;28;20050;-63
2021/04/14 09:14:21;;;;;;;7.20;3.35;;;;;;;8.11;41.43;96238.31;4991537;28;20034;-60
2021/04/14 09:16:54;;;;;;;4.93;2.85;;;;;;;7.89;41.04;96232.44;4991836;28;20038;-62
2021/04/14 09:19:19;;;;;;;4.45;2.83;;;;;;;8.03;42.13;96228.22;4989841;28;20081;-63
2021/04/14 09:21:49;;;;;;;4.05;2.95;;;;;;;7.87;42.11;96203.53;5004500;28;20436;-61
2021/04/14 09:24:27;;;;;;;6.90;3.38;;;;;;;9.03;40.74;96225.19;4988494;28;20605;-63
2021/04/14 09:26:55;;;;;;;3.83;2.00;;;;;;;8.01;38.37;96211.81;4989915;28;20117;-61
2021/04/14 09:29:23;;;;;;;7.40;2.15;;;;;;;7.63;39.76;96226.25;4989877;28;20054;-62
2021/04/14 09:31:52;;;;;;;4.45;2.30;;;;;;;8.69;38.62;96222.28;4991420;28;20033;-61
2021/04/14 09:34:34;;;;;;;4.22;1.90;;;;;;;8.81;37.27;96225.47;4989789;28;20026;-62
2021/04/14 09:37:24;;;;;;;3.50;1.88;;;;;;;9.04;37.02;96226.78;4989209;28;20042;-61
2021/04/14 09:39:51;;;;;;;3.80;1.70;;;;;;;9.16;36.65;96219.31;4989958;28;20043;-61
2021/04/14 09:42:22;;;;;;;4.50;2.28;;;;;;;9.58;36.09;96220.84;4989502;28;20066;-61
2021/04/14 09:44:51;;;;;;;2.58;1.90;;;;;;;10.06;35.98;96216.63;4989793;28;20512;-61
2021/04/14 09:47:32;;;;;;;3.03;2.30;;;;;;;10.00;36.22;96216.94;4989544;28;20149;-62
2021/04/14 09:50:13;;;;;;;3.13;2.17;;;;;;;9.99;35.94;96186.91;5005697;28;20514;-62
2021/04/14 09:52:47;;;;;;;7.43;2.40;;;;;;;10.06;35.93;96208.66;4991005;28;20034;-62
2021/04/14 09:55:19;;;;;;;5.15;2.38;;;;;;;10.01;35.44;96207.88;4993394;28;20551;-63
2021/04/14 09:57:47;;;;;;;6.18;2.58;;;;;;;10.17;35.89;96206.75;4993174;28;20133;-64
2021/04/14 10:00:23;;;;;;;3.30;2.10;;;;;;;10.03;36.14;96208.41;4993268;28;20169;-61
2021/04/14 10:02:52;;;;;;;19.35;4.78;;;;;;;10.06;39.17;96205.22;4991567;28;20721;-64
2021/04/14 10:05:17;;;;;;;5.28;2.45;;;;;;;10.47;37.08;96199.69;4993179;28;20034;-61
2021/04/14 10:07:45;;;;;;;7.97;2.58;;;;;;;10.68;35.62;96193.13;4994944;28;20045;-60
2021/04/14 10:10:12;;;;;;;2.33;2.00;;;;;;;11.13;35.22;96183.16;5007992;28;20130;-59
2021/04/14 10:12:37;;;;;;;4.28;1.88;;;;;;;11.53;35.36;96173.94;4992964;28;20500;-59
2021/04/14 10:15:05;;;;;;;3.55;2.20;;;;;;;12.01;35.06;96170.44;4993138;28;20058;-60
2021/04/14 10:17:32;;;;;;;4.03;2.28;;;;;;;11.65;34.25;96160.19;4992760;28;20049;-60
2021/04/14 10:20:11;;;;;;;3.58;2.00;;;;;;;11.77;34.16;96163.25;4994104;28;20030;-64
2021/04/14 10:22:41;;;;;;;7.93;2.60;;;;;;;11.88;32.50;96130.09;5007956;28;20089;-62
2021/04/14 10:25:29;;;;;;;4.93;2.60;;;;;;;11.92;32.27;96160.41;5007726;28;20141;-64
2021/04/14 10:28:01;;;;;;;3.22;2.30;;;;;;;12.08;32.36;96121.00;4993193;28;20045;-61
2021/04/14 10:30:28;;;;;;;;;;;;;;;12.45;32.10;96149.53;4992959;28;20043;-60
2021/04/14 10:33:01;;;;;;;4.25;2.42;;;;;;;12.41;31.56;96105.03;4992495;28;19924;-60
2021/04/14 10:35:27;;;;;;;4.13;2.00;;;;;;;12.29;31.70;96105.50;4992587;28;20031;-61
2021/04/14 10:37:54;;;;;;;4.28;2.13;;;;;;;11.84;30.68;96147.72;5009246;28;20025;-60
2021/04/14 10:40:35;;;;;;;6.22;2.03;;;;;;;8.51;37.39;96165.25;4983952;28;20038;-61
2021/04/14 10:43:29;;;;;;;4.13;2.28;;;;;;;8.48;36.76;96173.72;5007515;28;20060;-59
2021/04/14 10:46:02;;;;;;;4.82;1.77;;;;;;;6.71;40.81;96162.22;4996415;28;20030;-60
2021/04/14 10:48:28;;;;;;;3.53;1.55;;;;;;;6.34;40.44;96119.88;4992478;28;20430;-61
2021/04/14 10:51:11;;;;;;;3.63;2.15;;;;;;;6.80;38.87;96126.28;4992032;28;20496;-61
2021/04/14 10:53:39;;;;;;;3.10;1.40;;;;;;;6.20;39.07;96159.97;5007527;28;20100;-59
2021/04/14 10:56:16;;;;;;;2.70;1.35;;;;;;;5.65;37.82;96108.16;4992336;28;20026;-59
2021/04/14 10:58:42;;;;;;;14.48;2.10;;;;;;;6.34;36.13;96104.03;4994202;28;20027;-60
2021/04/14 11:01:16;;;;;;;2.53;1.33;;;;;;;6.26;37.18;96158.16;4992491;28;20050;-61
2021/04/14 11:03:44;;;;;;;3.42;1.45;;;;;;;6.53;37.41;96141.44;4992496;28;20042;-61
2021/04/14 11:06:11;;;;;;;3.05;1.60;;;;;;;7.10;38.68;96157.41;4991962;28;20551;-61
2021/04/14 11:08:37;;;;;;;3.25;1.58;;;;;;;7.11;38.75;96129.91;5006968;28;20074;-63
2021/04/14 11:11:04;;;;;;;2.28;1.40;;;;;;;7.48;38.34;96147.53;4992301;28;20110;-63
2021/04/14 11:13:33;;;;;;;2.63;1.38;;;;;;;7.90;36.95;96144.75;5008973;28;20439;-63
2021/04/14 11:15:59;;;;;;;3.50;1.45;;;;;;;7.85;36.63;96146.59;4992205;28;20041;-62
2021/04/14 11:18:36;;;;;;;3.95;2.45;;;;;;;8.41;37.61;96144.84;4992019;28;20034;-62
2021/04/14 11:21:08;;;;;;;4.40;1.83;;;;;;;8.61;36.08;96143.25;4991654;28;20042;-62
2021/04/14 11:23:37;;;;;;;;;;;;;;;9.14;36.15;96141.81;4992555;28;20038;-62
2021/04/14 11:26:22;;;;;;;2.22;1.55;;;;;;;9.58;36.41;96146.47;4991909;28;19914;-61
2021/04/14 11:28:54;;;;;;;2.92;1.52;;;;;;;9.95;35.31;96124.72;4993244;28;20030;-63
2021/04/14 11:31:36;;;;;;;;;;;;;;;10.48;34.79;96132.88;4992217;28;20038;-61
2021/04/14 11:34:21;;;;;;;1.83;1.40;;;;;;;11.03;33.65;96130.00;4991834;28;19921;-63
2021/04/14 11:37:01;;;;;;;4.65;1.80;;;;;;;11.27;32.42;96122.03;4991759;28;20125;-62
2021/04/14 11:39:30;;;;;;;2.90;2.22;;;;;;;11.58;30.90;96123.25;4991555;28;20054;-62
2021/04/14 11:42:16;;;;;;;4.10;1.50;;;;;;;11.87;29.97;96119.69;4991573;28;20104;-62
2021/04/14 11:44:47;;;;;;;3.22;1.60;;;;;;;12.24;31.02;96124.25;4991731;28;20512;-63
2021/04/14 11:47:24;;;;;;;4.47;1.90;;;;;;;12.40;31.27;96108.78;4991358;28;20035;-62